sensor_id;sensor_type;location;lat;lon;timestamp;P1;durP1;ratioP1;P2;durP2;ratioP2
18499;SDS011;9379;52.134;11.576;2022-12-18T00:02:13;29.73;;;20.07;;
18499;SDS011;9379;52.134;11.576;2022-12-18T00:04:39;33.17;;;19.37;;
18499;SDS011;9379;52.134;11.576;2022-12-18T00:07:06;33.97;;;20.57;;
18499;SDS011;9379;52.134;11.576;2022-12-18T00:09:33;31.60;;;22.23;;
18499;SDS011;9379;52.134;11.576;2022-12-18T00:12:00;30.50;;;20.20;;
18499;SDS011;9379;52.134;11.576;2022-12-18T00:14:27;36.43;;;21.83;;
18499;SDS011;9379;52.134;11.576;2022-12-18T00:16:55;35.23;;;22.90;;
18499;SDS011;9379;52.134;11.576;2022-12-18T00:19:23;28.20;;;21.20;;
18499;SDS011;9379;52.134;11.576;2022-12-18T00:21:50;28.60;;;21.13;;
18499;SDS011;9379;52.134;11.576;2022-12-18T00:24:17;27.43;;;19.97;;
18499;SDS011;9379;52.134;11.576;2022-12-18T00:26:44;39.03;;;22.03;;
18499;SDS011;9379;52.134;11.576;2022-12-18T00:29:12;31.73;;;18.87;;
18499;SDS011;9379;52.134;11.576;2022-12-18T00:31:40;35.53;;;20.03;;
18499;SDS011;9379;52.134;11.576;2022-12-18T00:34:10;33.07;;;20.37;;
18499;SDS011;9379;52.134;11.576;2022-12-18T00:36:37;32.10;;;22.33;;
18499;SDS011;9379;52.134;11.576;2022-12-18T00:39:04;27.17;;;19.53;;
18499;SDS011;9379;52.134;11.576;2022-12-18T00:41:31;28.83;;;18.50;;
18499;SDS011;9379;52.134;11.576;2022-12-18T00:44:17;28.90;;;20.33;;
18499;SDS011;9379;52.134;11.576;2022-12-18T00:46:45;31.53;;;18.63;;
18499;SDS011;9379;52.134;11.576;2022-12-18T00:49:14;27.90;;;18.63;;
18499;SDS011;9379;52.134;11.576;2022-12-18T00:51:42;30.60;;;22.97;;
18499;SDS011;9379;52.134;11.576;2022-12-18T00:54:10;25.83;;;20.20;;
18499;SDS011;9379;52.134;11.576;2022-12-18T00:56:37;27.13;;;19.83;;
18499;SDS011;9379;52.134;11.576;2022-12-18T00:59:06;29.37;;;18.70;;
18499;SDS011;9379;52.134;11.576;2022-12-18T01:01:32;24.00;;;20.17;;
18499;SDS011;9379;52.134;11.576;2022-12-18T01:04:00;31.37;;;20.33;;
18499;SDS011;9379;52.134;11.576;2022-12-18T01:06:28;25.37;;;17.90;;
18499;SDS011;9379;52.134;11.576;2022-12-18T01:08:55;28.90;;;19.43;;
18499;SDS011;9379;52.134;11.576;2022-12-18T01:11:22;25.80;;;17.67;;
18499;SDS011;9379;52.134;11.576;2022-12-18T01:13:51;28.47;;;19.33;;
18499;SDS011;9379;52.134;11.576;2022-12-18T01:16:18;25.13;;;19.27;;
18499;SDS011;9379;52.134;11.576;2022-12-18T01:18:45;29.13;;;19.30;;
18499;SDS011;9379;52.134;11.576;2022-12-18T01:21:13;28.60;;;19.20;;
18499;SDS011;9379;52.134;11.576;2022-12-18T01:23:42;27.37;;;19.07;;
18499;SDS011;9379;52.134;11.576;2022-12-18T01:26:10;31.73;;;21.23;;
18499;SDS011;9379;52.134;11.576;2022-12-18T01:28:38;25.87;;;16.40;;
18499;SDS011;9379;52.134;11.576;2022-12-18T01:31:09;28.00;;;17.57;;
18499;SDS011;9379;52.134;11.576;2022-12-18T01:33:37;25.77;;;18.73;;
18499;SDS011;9379;52.134;11.576;2022-12-18T01:36:05;26.50;;;20.07;;
18499;SDS011;9379;52.134;11.576;2022-12-18T01:38:32;31.37;;;19.60;;
18499;SDS011;9379;52.134;11.576;2022-12-18T01:41:00;34.03;;;19.23;;
18499;SDS011;9379;52.134;11.576;2022-12-18T01:43:40;27.93;;;17.80;;
18499;SDS011;9379;52.134;11.576;2022-12-18T01:46:12;25.67;;;18.60;;
18499;SDS011;9379;52.134;11.576;2022-12-18T01:48:39;29.43;;;17.47;;
18499;SDS011;9379;52.134;11.576;2022-12-18T01:51:07;28.53;;;18.67;;
18499;SDS011;9379;52.134;11.576;2022-12-18T01:53:35;29.87;;;18.33;;
18499;SDS011;9379;52.134;11.576;2022-12-18T01:56:05;33.57;;;21.43;;
18499;SDS011;9379;52.134;11.576;2022-12-18T01:58:35;26.00;;;18.57;;
18499;SDS011;9379;52.134;11.576;2022-12-18T02:01:07;35.70;;;20.77;;
18499;SDS011;9379;52.134;11.576;2022-12-18T02:03:34;31.00;;;22.47;;
18499;SDS011;9379;52.134;11.576;2022-12-18T02:06:04;32.33;;;21.53;;
18499;SDS011;9379;52.134;11.576;2022-12-18T02:08:39;36.63;;;24.57;;
18499;SDS011;9379;52.134;11.576;2022-12-18T02:11:32;30.97;;;20.37;;
18499;SDS011;9379;52.134;11.576;2022-12-18T02:14:12;27.93;;;18.80;;
18499;SDS011;9379;52.134;11.576;2022-12-18T02:16:49;25.97;;;17.33;;
18499;SDS011;9379;52.134;11.576;2022-12-18T02:19:39;29.73;;;21.20;;
18499;SDS011;9379;52.134;11.576;2022-12-18T02:22:20;28.07;;;19.50;;
18499;SDS011;9379;52.134;11.576;2022-12-18T02:24:57;27.63;;;18.33;;
18499;SDS011;9379;52.134;11.576;2022-12-18T02:27:33;27.00;;;18.03;;
18499;SDS011;9379;52.134;11.576;2022-12-18T02:30:04;26.37;;;16.80;;
18499;SDS011;9379;52.134;11.576;2022-12-18T02:32:35;24.47;;;18.17;;
18499;SDS011;9379;52.134;11.576;2022-12-18T02:35:06;26.93;;;19.47;;
18499;SDS011;9379;52.134;11.576;2022-12-18T02:37:36;27.33;;;16.90;;
18499;SDS011;9379;52.134;11.576;2022-12-18T02:40:06;38.73;;;20.37;;
18499;SDS011;9379;52.134;11.576;2022-12-18T02:42:37;34.30;;;20.30;;
18499;SDS011;9379;52.134;11.576;2022-12-18T02:45:04;32.67;;;21.07;;
18499;SDS011;9379;52.134;11.576;2022-12-18T02:47:32;27.53;;;18.60;;
18499;SDS011;9379;52.134;11.576;2022-12-18T02:50:05;34.87;;;18.47;;
18499;SDS011;9379;52.134;11.576;2022-12-18T02:52:38;32.40;;;22.93;;
18499;SDS011;9379;52.134;11.576;2022-12-18T02:55:18;30.23;;;19.53;;
18499;SDS011;9379;52.134;11.576;2022-12-18T02:57:56;27.17;;;21.53;;
18499;SDS011;9379;52.134;11.576;2022-12-18T03:00:30;29.80;;;18.93;;
18499;SDS011;9379;52.134;11.576;2022-12-18T03:03:04;28.63;;;19.37;;
18499;SDS011;9379;52.134;11.576;2022-12-18T03:05:38;26.17;;;18.03;;
18499;SDS011;9379;52.134;11.576;2022-12-18T03:08:12;28.67;;;18.40;;
18499;SDS011;9379;52.134;11.576;2022-12-18T03:10:45;30.93;;;20.67;;
18499;SDS011;9379;52.134;11.576;2022-12-18T03:13:20;35.40;;;19.87;;
18499;SDS011;9379;52.134;11.576;2022-12-18T03:15:57;29.63;;;17.67;;
18499;SDS011;9379;52.134;11.576;2022-12-18T03:18:27;28.43;;;20.50;;
18499;SDS011;9379;52.134;11.576;2022-12-18T03:20:59;29.20;;;18.37;;
18499;SDS011;9379;52.134;11.576;2022-12-18T03:23:32;34.80;;;22.47;;
18499;SDS011;9379;52.134;11.576;2022-12-18T03:26:03;28.93;;;21.23;;
18499;SDS011;9379;52.134;11.576;2022-12-18T03:28:37;25.47;;;19.77;;
18499;SDS011;9379;52.134;11.576;2022-12-18T03:31:08;30.03;;;20.03;;
18499;SDS011;9379;52.134;11.576;2022-12-18T03:33:37;32.40;;;22.07;;
18499;SDS011;9379;52.134;11.576;2022-12-18T03:36:07;36.70;;;23.70;;
18499;SDS011;9379;52.134;11.576;2022-12-18T03:38:34;34.53;;;21.10;;
18499;SDS011;9379;52.134;11.576;2022-12-18T03:41:03;38.40;;;22.83;;
18499;SDS011;9379;52.134;11.576;2022-12-18T03:43:42;35.10;;;23.70;;
18499;SDS011;9379;52.134;11.576;2022-12-18T03:46:15;37.57;;;22.67;;
18499;SDS011;9379;52.134;11.576;2022-12-18T03:48:50;38.40;;;23.83;;
18499;SDS011;9379;52.134;11.576;2022-12-18T03:51:23;39.17;;;22.37;;
18499;SDS011;9379;52.134;11.576;2022-12-18T03:53:54;40.60;;;24.90;;
18499;SDS011;9379;52.134;11.576;2022-12-18T03:56:25;40.30;;;23.13;;
18499;SDS011;9379;52.134;11.576;2022-12-18T03:58:57;45.27;;;25.90;;
18499;SDS011;9379;52.134;11.576;2022-12-18T04:01:28;31.80;;;23.03;;
18499;SDS011;9379;52.134;11.576;2022-12-18T04:03:58;34.13;;;21.33;;
18499;SDS011;9379;52.134;11.576;2022-12-18T04:06:26;38.27;;;20.17;;
18499;SDS011;9379;52.134;11.576;2022-12-18T04:08:54;32.70;;;22.03;;
18499;SDS011;9379;52.134;11.576;2022-12-18T04:11:22;33.60;;;22.57;;
18499;SDS011;9379;52.134;11.576;2022-12-18T04:13:49;34.57;;;21.70;;
18499;SDS011;9379;52.134;11.576;2022-12-18T04:16:17;44.53;;;24.47;;
18499;SDS011;9379;52.134;11.576;2022-12-18T04:18:44;30.63;;;21.13;;
18499;SDS011;9379;52.134;11.576;2022-12-18T04:21:11;32.17;;;23.50;;
18499;SDS011;9379;52.134;11.576;2022-12-18T04:23:41;35.37;;;22.83;;
18499;SDS011;9379;52.134;11.576;2022-12-18T04:26:08;33.77;;;22.10;;
18499;SDS011;9379;52.134;11.576;2022-12-18T04:28:35;25.90;;;18.50;;
18499;SDS011;9379;52.134;11.576;2022-12-18T04:31:01;25.33;;;20.47;;
18499;SDS011;9379;52.134;11.576;2022-12-18T04:33:30;29.83;;;19.23;;
18499;SDS011;9379;52.134;11.576;2022-12-18T04:35:56;32.37;;;20.13;;
18499;SDS011;9379;52.134;11.576;2022-12-18T04:38:24;29.43;;;18.43;;
18499;SDS011;9379;52.134;11.576;2022-12-18T04:40:51;32.33;;;20.97;;
18499;SDS011;9379;52.134;11.576;2022-12-18T04:43:17;27.53;;;20.93;;
18499;SDS011;9379;52.134;11.576;2022-12-18T04:45:44;26.60;;;19.20;;
18499;SDS011;9379;52.134;11.576;2022-12-18T04:48:11;22.07;;;17.00;;
18499;SDS011;9379;52.134;11.576;2022-12-18T04:50:39;29.13;;;21.40;;
18499;SDS011;9379;52.134;11.576;2022-12-18T04:53:06;31.50;;;21.73;;
18499;SDS011;9379;52.134;11.576;2022-12-18T04:55:33;25.87;;;20.10;;
18499;SDS011;9379;52.134;11.576;2022-12-18T04:57:59;33.47;;;21.40;;
18499;SDS011;9379;52.134;11.576;2022-12-18T05:00:26;33.03;;;20.57;;
18499;SDS011;9379;52.134;11.576;2022-12-18T05:02:53;35.07;;;20.67;;
18499;SDS011;9379;52.134;11.576;2022-12-18T05:05:20;35.53;;;23.87;;
18499;SDS011;9379;52.134;11.576;2022-12-18T05:07:48;34.43;;;21.90;;
18499;SDS011;9379;52.134;11.576;2022-12-18T05:10:15;36.07;;;22.00;;
18499;SDS011;9379;52.134;11.576;2022-12-18T05:12:41;38.13;;;20.60;;
18499;SDS011;9379;52.134;11.576;2022-12-18T05:15:22;31.40;;;22.77;;
18499;SDS011;9379;52.134;11.576;2022-12-18T05:17:49;33.17;;;21.67;;
18499;SDS011;9379;52.134;11.576;2022-12-18T05:20:16;35.00;;;22.67;;
18499;SDS011;9379;52.134;11.576;2022-12-18T05:22:44;31.03;;;21.27;;
18499;SDS011;9379;52.134;11.576;2022-12-18T05:25:12;30.17;;;20.67;;
18499;SDS011;9379;52.134;11.576;2022-12-18T05:27:39;36.27;;;24.27;;
18499;SDS011;9379;52.134;11.576;2022-12-18T05:30:06;36.10;;;23.73;;
18499;SDS011;9379;52.134;11.576;2022-12-18T05:32:33;28.37;;;21.10;;
18499;SDS011;9379;52.134;11.576;2022-12-18T05:35:00;30.57;;;21.77;;
18499;SDS011;9379;52.134;11.576;2022-12-18T05:37:27;36.60;;;24.97;;
18499;SDS011;9379;52.134;11.576;2022-12-18T05:39:54;34.90;;;21.40;;
18499;SDS011;9379;52.134;11.576;2022-12-18T05:42:22;37.33;;;24.50;;
18499;SDS011;9379;52.134;11.576;2022-12-18T05:44:49;35.40;;;23.90;;
18499;SDS011;9379;52.134;11.576;2022-12-18T05:47:16;34.53;;;23.03;;
18499;SDS011;9379;52.134;11.576;2022-12-18T05:49:42;32.77;;;22.37;;
18499;SDS011;9379;52.134;11.576;2022-12-18T05:52:09;25.70;;;20.33;;
18499;SDS011;9379;52.134;11.576;2022-12-18T05:54:36;32.67;;;23.33;;
18499;SDS011;9379;52.134;11.576;2022-12-18T05:57:03;52.67;;;28.50;;
18499;SDS011;9379;52.134;11.576;2022-12-18T05:59:31;37.70;;;25.77;;
18499;SDS011;9379;52.134;11.576;2022-12-18T06:01:58;39.80;;;24.70;;
18499;SDS011;9379;52.134;11.576;2022-12-18T06:04:26;46.70;;;25.20;;
18499;SDS011;9379;52.134;11.576;2022-12-18T06:06:53;41.57;;;24.57;;
18499;SDS011;9379;52.134;11.576;2022-12-18T06:09:20;51.30;;;29.50;;
18499;SDS011;9379;52.134;11.576;2022-12-18T06:11:47;45.87;;;28.57;;
18499;SDS011;9379;52.134;11.576;2022-12-18T06:14:14;37.33;;;24.87;;
18499;SDS011;9379;52.134;11.576;2022-12-18T06:16:43;34.30;;;23.90;;
18499;SDS011;9379;52.134;11.576;2022-12-18T06:19:12;38.53;;;24.50;;
18499;SDS011;9379;52.134;11.576;2022-12-18T06:21:41;36.73;;;24.33;;
18499;SDS011;9379;52.134;11.576;2022-12-18T06:24:07;33.63;;;25.03;;
18499;SDS011;9379;52.134;11.576;2022-12-18T06:26:36;39.83;;;26.30;;
18499;SDS011;9379;52.134;11.576;2022-12-18T06:29:03;41.23;;;28.00;;
18499;SDS011;9379;52.134;11.576;2022-12-18T06:31:30;47.50;;;30.43;;
18499;SDS011;9379;52.134;11.576;2022-12-18T06:33:58;37.70;;;28.23;;
18499;SDS011;9379;52.134;11.576;2022-12-18T06:36:25;40.30;;;29.07;;
18499;SDS011;9379;52.134;11.576;2022-12-18T06:38:52;36.57;;;25.57;;
18499;SDS011;9379;52.134;11.576;2022-12-18T06:41:20;41.73;;;28.50;;
18499;SDS011;9379;52.134;11.576;2022-12-18T06:43:47;37.80;;;25.47;;
18499;SDS011;9379;52.134;11.576;2022-12-18T06:46:14;45.70;;;27.70;;
18499;SDS011;9379;52.134;11.576;2022-12-18T06:48:41;45.80;;;25.83;;
18499;SDS011;9379;52.134;11.576;2022-12-18T06:51:10;37.73;;;28.47;;
18499;SDS011;9379;52.134;11.576;2022-12-18T06:53:36;40.83;;;25.03;;
18499;SDS011;9379;52.134;11.576;2022-12-18T06:56:04;40.10;;;26.00;;
18499;SDS011;9379;52.134;11.576;2022-12-18T06:58:33;41.20;;;27.43;;
18499;SDS011;9379;52.134;11.576;2022-12-18T07:01:02;41.60;;;28.80;;
18499;SDS011;9379;52.134;11.576;2022-12-18T07:03:30;37.73;;;26.27;;
18499;SDS011;9379;52.134;11.576;2022-12-18T07:05:57;40.67;;;25.67;;
18499;SDS011;9379;52.134;11.576;2022-12-18T07:08:25;42.37;;;28.57;;
18499;SDS011;9379;52.134;11.576;2022-12-18T07:10:52;33.93;;;25.63;;
18499;SDS011;9379;52.134;11.576;2022-12-18T07:13:19;35.07;;;27.47;;
18499;SDS011;9379;52.134;11.576;2022-12-18T07:15:45;41.20;;;27.30;;
18499;SDS011;9379;52.134;11.576;2022-12-18T07:18:12;42.57;;;27.00;;
18499;SDS011;9379;52.134;11.576;2022-12-18T07:20:39;44.97;;;28.17;;
18499;SDS011;9379;52.134;11.576;2022-12-18T07:23:06;43.83;;;27.73;;
18499;SDS011;9379;52.134;11.576;2022-12-18T07:25:34;39.60;;;27.27;;
18499;SDS011;9379;52.134;11.576;2022-12-18T07:28:01;39.23;;;28.40;;
18499;SDS011;9379;52.134;11.576;2022-12-18T07:30:28;46.10;;;31.60;;
18499;SDS011;9379;52.134;11.576;2022-12-18T07:32:55;35.03;;;24.70;;
18499;SDS011;9379;52.134;11.576;2022-12-18T07:35:21;34.20;;;24.20;;
18499;SDS011;9379;52.134;11.576;2022-12-18T07:37:48;47.30;;;28.03;;
18499;SDS011;9379;52.134;11.576;2022-12-18T07:40:15;39.67;;;27.20;;
18499;SDS011;9379;52.134;11.576;2022-12-18T07:42:43;39.33;;;25.63;;
18499;SDS011;9379;52.134;11.576;2022-12-18T07:45:10;38.90;;;25.77;;
18499;SDS011;9379;52.134;11.576;2022-12-18T07:47:37;43.00;;;27.10;;
18499;SDS011;9379;52.134;11.576;2022-12-18T07:50:06;38.33;;;26.77;;
18499;SDS011;9379;52.134;11.576;2022-12-18T07:52:33;39.57;;;26.20;;
18499;SDS011;9379;52.134;11.576;2022-12-18T07:55:00;40.73;;;25.13;;
18499;SDS011;9379;52.134;11.576;2022-12-18T07:57:27;45.67;;;30.87;;
18499;SDS011;9379;52.134;11.576;2022-12-18T07:59:55;34.30;;;25.97;;
18499;SDS011;9379;52.134;11.576;2022-12-18T08:02:22;34.57;;;25.90;;
18499;SDS011;9379;52.134;11.576;2022-12-18T08:04:48;41.67;;;26.20;;
18499;SDS011;9379;52.134;11.576;2022-12-18T08:07:15;44.00;;;27.93;;
18499;SDS011;9379;52.134;11.576;2022-12-18T08:09:42;35.70;;;26.17;;
18499;SDS011;9379;52.134;11.576;2022-12-18T08:12:10;35.50;;;27.37;;
18499;SDS011;9379;52.134;11.576;2022-12-18T08:14:37;42.57;;;28.90;;
18499;SDS011;9379;52.134;11.576;2022-12-18T08:17:06;37.53;;;28.20;;
18499;SDS011;9379;52.134;11.576;2022-12-18T08:19:32;38.90;;;28.33;;
18499;SDS011;9379;52.134;11.576;2022-12-18T08:21:59;39.90;;;26.17;;
18499;SDS011;9379;52.134;11.576;2022-12-18T08:24:26;39.37;;;27.90;;
18499;SDS011;9379;52.134;11.576;2022-12-18T08:26:53;32.73;;;24.37;;
18499;SDS011;9379;52.134;11.576;2022-12-18T08:29:20;33.50;;;25.70;;
18499;SDS011;9379;52.134;11.576;2022-12-18T08:31:46;37.57;;;26.37;;
18499;SDS011;9379;52.134;11.576;2022-12-18T08:34:14;38.03;;;27.60;;
18499;SDS011;9379;52.134;11.576;2022-12-18T08:36:41;39.53;;;29.97;;
18499;SDS011;9379;52.134;11.576;2022-12-18T08:39:08;36.87;;;25.57;;
18499;SDS011;9379;52.134;11.576;2022-12-18T08:41:35;37.00;;;25.93;;
18499;SDS011;9379;52.134;11.576;2022-12-18T08:44:02;43.07;;;28.30;;
18499;SDS011;9379;52.134;11.576;2022-12-18T08:46:46;36.00;;;25.70;;
18499;SDS011;9379;52.134;11.576;2022-12-18T08:49:15;32.73;;;24.77;;
18499;SDS011;9379;52.134;11.576;2022-12-18T08:51:41;33.53;;;26.53;;
18499;SDS011;9379;52.134;11.576;2022-12-18T08:54:09;37.40;;;26.87;;
18499;SDS011;9379;52.134;11.576;2022-12-18T08:56:37;31.97;;;21.93;;
18499;SDS011;9379;52.134;11.576;2022-12-18T08:59:04;35.40;;;22.97;;
18499;SDS011;9379;52.134;11.576;2022-12-18T09:01:31;26.77;;;21.63;;
18499;SDS011;9379;52.134;11.576;2022-12-18T09:04:00;35.43;;;20.50;;
18499;SDS011;9379;52.134;11.576;2022-12-18T09:06:28;32.97;;;22.77;;
18499;SDS011;9379;52.134;11.576;2022-12-18T09:08:55;30.03;;;21.50;;
18499;SDS011;9379;52.134;11.576;2022-12-18T09:11:24;34.50;;;25.30;;
18499;SDS011;9379;52.134;11.576;2022-12-18T09:13:52;35.63;;;24.70;;
18499;SDS011;9379;52.134;11.576;2022-12-18T09:16:20;35.77;;;25.77;;
18499;SDS011;9379;52.134;11.576;2022-12-18T09:18:48;34.37;;;27.53;;
18499;SDS011;9379;52.134;11.576;2022-12-18T09:21:16;33.73;;;24.17;;
18499;SDS011;9379;52.134;11.576;2022-12-18T09:23:48;32.87;;;24.80;;
18499;SDS011;9379;52.134;11.576;2022-12-18T09:26:15;32.20;;;24.70;;
18499;SDS011;9379;52.134;11.576;2022-12-18T09:28:42;38.30;;;29.13;;
18499;SDS011;9379;52.134;11.576;2022-12-18T09:31:10;36.33;;;25.30;;
18499;SDS011;9379;52.134;11.576;2022-12-18T09:33:38;30.63;;;24.47;;
18499;SDS011;9379;52.134;11.576;2022-12-18T09:36:05;31.87;;;25.10;;
18499;SDS011;9379;52.134;11.576;2022-12-18T09:38:34;30.03;;;22.37;;
18499;SDS011;9379;52.134;11.576;2022-12-18T09:41:03;35.37;;;24.87;;
18499;SDS011;9379;52.134;11.576;2022-12-18T09:43:34;34.47;;;24.03;;
18499;SDS011;9379;52.134;11.576;2022-12-18T09:46:06;36.60;;;22.97;;
18499;SDS011;9379;52.134;11.576;2022-12-18T09:48:38;34.53;;;24.70;;
18499;SDS011;9379;52.134;11.576;2022-12-18T09:51:10;35.17;;;24.63;;
18499;SDS011;9379;52.134;11.576;2022-12-18T09:53:41;34.80;;;22.60;;
18499;SDS011;9379;52.134;11.576;2022-12-18T09:56:15;34.20;;;24.57;;
18499;SDS011;9379;52.134;11.576;2022-12-18T09:58:48;27.97;;;22.47;;
18499;SDS011;9379;52.134;11.576;2022-12-18T10:01:20;37.57;;;26.47;;
18499;SDS011;9379;52.134;11.576;2022-12-18T10:03:48;36.40;;;25.60;;
18499;SDS011;9379;52.134;11.576;2022-12-18T10:06:18;34.37;;;26.47;;
18499;SDS011;9379;52.134;11.576;2022-12-18T10:08:51;30.90;;;24.07;;
18499;SDS011;9379;52.134;11.576;2022-12-18T10:11:32;32.67;;;22.23;;
18499;SDS011;9379;52.134;11.576;2022-12-18T10:14:09;38.80;;;24.33;;
18499;SDS011;9379;52.134;11.576;2022-12-18T10:16:47;29.93;;;22.03;;
18499;SDS011;9379;52.134;11.576;2022-12-18T10:19:33;26.70;;;22.10;;
18499;SDS011;9379;52.134;11.576;2022-12-18T10:22:09;33.60;;;23.50;;
18499;SDS011;9379;52.134;11.576;2022-12-18T10:24:43;28.53;;;20.73;;
18499;SDS011;9379;52.134;11.576;2022-12-18T10:27:18;27.93;;;20.67;;
18499;SDS011;9379;52.134;11.576;2022-12-18T10:29:49;25.00;;;20.00;;
18499;SDS011;9379;52.134;11.576;2022-12-18T10:32:16;29.87;;;22.27;;
18499;SDS011;9379;52.134;11.576;2022-12-18T10:34:45;22.20;;;17.20;;
18499;SDS011;9379;52.134;11.576;2022-12-18T10:37:14;29.83;;;22.20;;
18499;SDS011;9379;52.134;11.576;2022-12-18T10:39:43;32.33;;;22.60;;
18499;SDS011;9379;52.134;11.576;2022-12-18T10:42:11;28.60;;;23.47;;
18499;SDS011;9379;52.134;11.576;2022-12-18T10:44:44;30.27;;;21.30;;
18499;SDS011;9379;52.134;11.576;2022-12-18T10:47:12;31.53;;;22.30;;
18499;SDS011;9379;52.134;11.576;2022-12-18T10:49:47;33.33;;;22.30;;
18499;SDS011;9379;52.134;11.576;2022-12-18T10:52:17;32.07;;;22.10;;
18499;SDS011;9379;52.134;11.576;2022-12-18T10:54:46;33.93;;;22.97;;
18499;SDS011;9379;52.134;11.576;2022-12-18T10:57:16;30.33;;;21.83;;
18499;SDS011;9379;52.134;11.576;2022-12-18T10:59:52;26.93;;;20.63;;
18499;SDS011;9379;52.134;11.576;2022-12-18T11:02:25;33.23;;;22.17;;
18499;SDS011;9379;52.134;11.576;2022-12-18T11:04:53;26.57;;;20.27;;
18499;SDS011;9379;52.134;11.576;2022-12-18T11:07:20;31.87;;;21.83;;
18499;SDS011;9379;52.134;11.576;2022-12-18T11:09:58;29.30;;;21.03;;
18499;SDS011;9379;52.134;11.576;2022-12-18T11:12:30;29.47;;;22.50;;
18499;SDS011;9379;52.134;11.576;2022-12-18T11:14:59;30.00;;;21.93;;
18499;SDS011;9379;52.134;11.576;2022-12-18T11:17:28;28.07;;;23.07;;
18499;SDS011;9379;52.134;11.576;2022-12-18T11:19:56;28.13;;;18.23;;
18499;SDS011;9379;52.134;11.576;2022-12-18T11:22:26;27.03;;;18.77;;
18499;SDS011;9379;52.134;11.576;2022-12-18T11:24:55;26.20;;;18.23;;
18499;SDS011;9379;52.134;11.576;2022-12-18T11:27:25;27.50;;;18.50;;
18499;SDS011;9379;52.134;11.576;2022-12-18T11:30:06;29.83;;;19.73;;
18499;SDS011;9379;52.134;11.576;2022-12-18T11:32:36;20.73;;;16.93;;
18499;SDS011;9379;52.134;11.576;2022-12-18T11:35:11;25.90;;;20.37;;
18499;SDS011;9379;52.134;11.576;2022-12-18T11:37:45;25.33;;;20.80;;
18499;SDS011;9379;52.134;11.576;2022-12-18T11:40:16;20.93;;;14.00;;
18499;SDS011;9379;52.134;11.576;2022-12-18T11:42:48;25.33;;;19.57;;
18499;SDS011;9379;52.134;11.576;2022-12-18T11:45:28;25.90;;;18.17;;
18499;SDS011;9379;52.134;11.576;2022-12-18T11:50:34;24.63;;;18.43;;
18499;SDS011;9379;52.134;11.576;2022-12-18T11:53:12;27.00;;;22.10;;
18499;SDS011;9379;52.134;11.576;2022-12-18T11:55:41;23.90;;;18.53;;
18499;SDS011;9379;52.134;11.576;2022-12-18T11:58:18;31.07;;;18.90;;
18499;SDS011;9379;52.134;11.576;2022-12-18T12:01:01;26.33;;;19.43;;
18499;SDS011;9379;52.134;11.576;2022-12-18T12:03:44;20.43;;;15.77;;
18499;SDS011;9379;52.134;11.576;2022-12-18T12:06:31;19.00;;;15.57;;
18499;SDS011;9379;52.134;11.576;2022-12-18T12:09:08;33.60;;;19.60;;
18499;SDS011;9379;52.134;11.576;2022-12-18T12:11:44;26.67;;;18.53;;
18499;SDS011;9379;52.134;11.576;2022-12-18T12:14:25;23.07;;;17.43;;
18499;SDS011;9379;52.134;11.576;2022-12-18T12:17:08;22.33;;;17.03;;
18499;SDS011;9379;52.134;11.576;2022-12-18T12:19:44;25.87;;;17.60;;
18499;SDS011;9379;52.134;11.576;2022-12-18T12:22:20;18.20;;;15.10;;
18499;SDS011;9379;52.134;11.576;2022-12-18T12:25:01;23.23;;;17.57;;
18499;SDS011;9379;52.134;11.576;2022-12-18T12:27:50;20.93;;;18.03;;
18499;SDS011;9379;52.134;11.576;2022-12-18T12:30:29;28.17;;;19.13;;
18499;SDS011;9379;52.134;11.576;2022-12-18T12:33:09;27.93;;;21.23;;
18499;SDS011;9379;52.134;11.576;2022-12-18T12:35:48;43.97;;;27.00;;
18499;SDS011;9379;52.134;11.576;2022-12-18T12:38:22;39.23;;;24.03;;
18499;SDS011;9379;52.134;11.576;2022-12-18T12:40:56;37.63;;;24.97;;
18499;SDS011;9379;52.134;11.576;2022-12-18T12:43:28;36.80;;;24.13;;
18499;SDS011;9379;52.134;11.576;2022-12-18T12:46:00;34.67;;;23.57;;
18499;SDS011;9379;52.134;11.576;2022-12-18T12:48:37;34.73;;;24.20;;
18499;SDS011;9379;52.134;11.576;2022-12-18T12:51:10;36.80;;;25.97;;
18499;SDS011;9379;52.134;11.576;2022-12-18T12:53:42;42.60;;;25.93;;
18499;SDS011;9379;52.134;11.576;2022-12-18T12:56:12;50.03;;;27.47;;
18499;SDS011;9379;52.134;11.576;2022-12-18T12:58:44;44.77;;;27.83;;
18499;SDS011;9379;52.134;11.576;2022-12-18T13:01:22;36.70;;;25.13;;
18499;SDS011;9379;52.134;11.576;2022-12-18T13:04:03;40.90;;;26.23;;
18499;SDS011;9379;52.134;11.576;2022-12-18T13:06:40;48.70;;;31.90;;
18499;SDS011;9379;52.134;11.576;2022-12-18T13:09:14;42.83;;;28.90;;
18499;SDS011;9379;52.134;11.576;2022-12-18T13:11:42;31.63;;;22.70;;
18499;SDS011;9379;52.134;11.576;2022-12-18T13:14:29;27.83;;;21.30;;
18499;SDS011;9379;52.134;11.576;2022-12-18T13:17:17;29.57;;;21.00;;
18499;SDS011;9379;52.134;11.576;2022-12-18T13:20:04;27.63;;;20.10;;
18499;SDS011;9379;52.134;11.576;2022-12-18T13:22:35;23.47;;;16.90;;
18499;SDS011;9379;52.134;11.576;2022-12-18T13:28:11;24.50;;;17.00;;
18499;SDS011;9379;52.134;11.576;2022-12-18T13:30:46;25.53;;;21.63;;
18499;SDS011;9379;52.134;11.576;2022-12-18T13:36:15;24.50;;;18.20;;
18499;SDS011;9379;52.134;11.576;2022-12-18T13:41:51;39.93;;;28.60;;
18499;SDS011;9379;52.134;11.576;2022-12-18T13:44:31;29.73;;;20.93;;
18499;SDS011;9379;52.134;11.576;2022-12-18T13:47:01;25.57;;;20.53;;
18499;SDS011;9379;52.134;11.576;2022-12-18T13:49:31;23.20;;;19.47;;
18499;SDS011;9379;52.134;11.576;2022-12-18T13:52:16;21.73;;;16.63;;
18499;SDS011;9379;52.134;11.576;2022-12-18T13:54:47;22.50;;;17.87;;
18499;SDS011;9379;52.134;11.576;2022-12-18T13:57:25;26.23;;;17.43;;
18499;SDS011;9379;52.134;11.576;2022-12-18T13:59:53;22.80;;;18.43;;
18499;SDS011;9379;52.134;11.576;2022-12-18T14:02:22;17.23;;;15.37;;
18499;SDS011;9379;52.134;11.576;2022-12-18T14:04:55;26.00;;;19.27;;
18499;SDS011;9379;52.134;11.576;2022-12-18T14:07:24;24.50;;;16.27;;
18499;SDS011;9379;52.134;11.576;2022-12-18T14:09:56;20.50;;;17.57;;
18499;SDS011;9379;52.134;11.576;2022-12-18T14:12:27;22.43;;;17.97;;
18499;SDS011;9379;52.134;11.576;2022-12-18T14:15:16;24.57;;;17.80;;
18499;SDS011;9379;52.134;11.576;2022-12-18T14:17:50;26.30;;;18.93;;
18499;SDS011;9379;52.134;11.576;2022-12-18T14:20:18;27.23;;;15.73;;
18499;SDS011;9379;52.134;11.576;2022-12-18T14:22:48;22.87;;;16.60;;
18499;SDS011;9379;52.134;11.576;2022-12-18T14:25:18;18.87;;;15.10;;
18499;SDS011;9379;52.134;11.576;2022-12-18T14:27:47;20.97;;;14.13;;
18499;SDS011;9379;52.134;11.576;2022-12-18T14:30:23;26.90;;;14.57;;
18499;SDS011;9379;52.134;11.576;2022-12-18T14:33:02;19.50;;;14.03;;
18499;SDS011;9379;52.134;11.576;2022-12-18T14:35:30;21.43;;;15.90;;
18499;SDS011;9379;52.134;11.576;2022-12-18T14:40:58;27.80;;;19.97;;
18499;SDS011;9379;52.134;11.576;2022-12-18T14:43:27;29.00;;;22.27;;
18499;SDS011;9379;52.134;11.576;2022-12-18T14:45:56;32.80;;;19.47;;
18499;SDS011;9379;52.134;11.576;2022-12-18T14:48:31;26.97;;;19.10;;
18499;SDS011;9379;52.134;11.576;2022-12-18T14:51:05;26.43;;;19.13;;
18499;SDS011;9379;52.134;11.576;2022-12-18T14:53:37;33.93;;;21.37;;
18499;SDS011;9379;52.134;11.576;2022-12-18T14:56:14;33.77;;;18.77;;